Time;durP1;ratioP1;P1;durP2;ratioP2;P2;SDS_P1;SDS_P2;PMS_P1;PMS_P2;Temp;Humidity;BMP_temperature;BMP_pressure;BME280_temperature;BME280_humidity;BME280_pressure;Samples;Min_cycle;Max_cycle;Signal;HPM_P1;HPM_P2
2021/08/15 00:02:41;;;;;;;14.50;7.72;;;22.10;63.10;;;;;;5118303;28;20093;-87
2021/08/15 00:08:29;;;;;;;14.50;8.10;;;22.00;63.50;;;;;;5118503;28;20038;-87
2021/08/15 00:14:19;;;;;;;12.57;8.05;;;21.80;63.90;;;;;;5139260;28;20034;-87
2021/08/15 00:20:11;;;;;;;12.50;7.65;;;21.70;64.10;;;;;;5123018;28;20039;-87
2021/08/15 00:26:01;;;;;;;12.63;8.05;;;21.60;64.40;;;;;;5118118;28;20035;-88
2021/08/15 00:31:51;;;;;;;12.65;7.70;;;21.40;64.80;;;;;;5118029;28;20033;-88
2021/08/15 00:37:40;;;;;;;12.85;8.20;;;21.30;65.10;;;;;;5118123;28;20045;-88
2021/08/15 00:43:31;;;;;;;12.13;8.35;;;21.20;65.40;;;;;;5117886;28;20520;-88
2021/08/15 00:49:21;;;;;;;13.75;8.35;;;21.10;65.70;;;;;;5117613;28;20068;-88
2021/08/15 00:55:11;;;;;;;14.30;8.45;;;21.00;65.90;;;;;;5117627;28;20030;-88
2021/08/15 01:04:59;;;;;;;16.17;8.98;;;20.80;66.40;;;;;;5117574;28;20126;-87
2021/08/15 01:10:48;;;;;;;13.90;9.15;;;20.70;66.60;;;;;;5117117;28;20034;-88
2021/08/15 01:16:42;;;;;;;13.55;8.57;;;20.60;67.00;;;;;;5117221;28;20097;-88
2021/08/15 01:22:35;;;;;;;13.23;8.68;;;20.40;67.10;;;;;;5116985;28;20403;-87
2021/08/15 01:28:24;;;;;;;13.70;9.20;;;20.30;67.40;;;;;;5116706;28;20022;-87
2021/08/15 01:34:13;;;;;;;14.60;8.73;;;20.20;67.90;;;;;;5116853;28;20389;-88
2021/08/15 01:40:04;;;;;;;12.95;8.43;;;20.20;67.90;;;;;;5135153;28;20061;-88
2021/08/15 01:45:53;;;;;;;13.57;8.98;;;20.00;68.10;;;;;;5116545;28;20029;-87
2021/08/15 01:51:42;;;;;;;14.35;9.45;;;20.00;68.40;;;;;;5116212;28;20062;-87
2021/08/15 01:57:31;;;;;;;13.18;9.32;;;19.80;68.50;;;;;;5116149;28;20030;-87
2021/08/15 02:07:08;;;;;;;13.15;9.82;;;19.70;69.00;;;;;;5119792;28;20038;-88
2021/08/15 02:13:00;;;;;;;14.38;8.93;;;19.60;69.30;;;;;;5123063;28;20141;-87
2021/08/15 02:18:49;;;;;;;13.35;9.27;;;19.50;69.50;;;;;;5119658;28;20403;-86
2021/08/15 02:24:41;;;;;;;15.75;9.25;;;19.40;69.70;;;;;;5115634;28;20046;-87
2021/08/15 02:30:30;;;;;;;14.43;9.65;;;19.40;69.90;;;;;;5116231;28;20424;-88
2021/08/15 02:36:18;;;;;;;14.85;10.13;;;19.30;70.10;;;;;;5115406;28;20101;-88
2021/08/15 02:42:07;;;;;;;13.50;9.73;;;19.20;70.30;;;;;;5115530;28;20177;-87
2021/08/15 02:47:59;;;;;;;17.27;9.55;;;19.10;70.50;;;;;;5115370;28;20062;-88
2021/08/15 02:53:48;;;;;;;15.18;10.13;;;19.00;70.70;;;;;;5115588;28;20476;-88
2021/08/15 02:59:39;;;;;;;14.00;9.15;;;18.90;70.90;;;;;;5121853;28;20086;-87
2021/08/15 03:09:22;;;;;;;14.10;9.00;;;18.80;71.10;;;;;;5115465;28;20043;-87
2021/08/15 03:15:12;;;;;;;15.55;9.40;;;18.70;71.30;;;;;;5114964;28;20023;-88
2021/08/15 03:21:02;;;;;;;15.32;9.20;;;18.60;71.60;;;;;;5114872;28;20038;-88
2021/08/15 03:26:50;;;;;;;15.35;8.98;;;18.60;71.60;;;;;;5114905;28;20039;-88
2021/08/15 03:32:38;;;;;;;13.93;8.95;;;18.50;71.70;;;;;;5114549;28;20386;-87
2021/08/15 03:38:28;;;;;;;14.15;8.88;;;18.40;72.00;;;;;;5114258;28;20042;-87
2021/08/15 03:44:16;;;;;;;14.27;9.02;;;18.30;72.10;;;;;;5114458;28;20084;-87
2021/08/15 03:50:07;;;;;;;14.50;8.63;;;18.30;72.20;;;;;;5114191;28;20441;-87
2021/08/15 03:55:56;;;;;;;14.70;10.05;;;18.20;72.30;;;;;;5114419;28;20035;-87
2021/08/15 04:01:44;;;;;;;15.20;10.30;;;18.10;72.40;;;;;;5114392;28;20045;-87
2021/08/15 04:11:28;;;;;;;15.05;9.95;;;18.00;72.70;;;;;;5114357;28;20567;-87
2021/08/15 04:17:17;;;;;;;14.25;9.52;;;18.00;73.20;;;;;;5114320;28;20031;-87
2021/08/15 04:23:06;;;;;;;16.08;10.38;;;18.00;73.20;;;;;;5121591;28;20057;-87
2021/08/15 04:28:56;;;;;;;14.05;9.60;;;18.00;73.20;;;;;;5121773;28;20487;-87
2021/08/15 04:34:44;;;;;;;14.15;8.98;;;18.00;73.50;;;;;;5114371;28;20038;-87
2021/08/15 04:40:33;;;;;;;14.82;8.88;;;18.00;73.50;;;;;;5113914;28;20070;-88
2021/08/15 04:46:21;;;;;;;12.13;8.25;;;18.00;73.60;;;;;;5113893;28;20030;-86
2021/08/15 04:52:10;;;;;;;14.70;9.02;;;18.10;73.70;;;;;;5118221;28;20529;-87
2021/08/15 04:57:59;;;;;;;15.25;10.05;;;18.10;73.60;;;;;;5117754;28;20026;-88
2021/08/15 05:03:49;;;;;;;15.75;10.43;;;18.20;73.80;;;;;;5117027;28;20072;-88
2021/08/15 05:13:33;;;;;;;15.10;10.25;;;18.20;74.10;;;;;;5116753;28;20636;-85
2021/08/15 05:19:22;;;;;;;16.60;10.23;;;18.40;74.40;;;;;;5116812;28;20035;-86
2021/08/15 05:25:12;;;;;;;16.10;10.57;;;18.50;74.40;;;;;;5116849;28;20031;-86
2021/08/15 05:31:00;;;;;;;18.25;11.80;;;18.60;74.60;;;;;;5116769;28;20520;-83
2021/08/15 05:36:50;;;;;;;16.90;11.75;;;18.70;74.80;;;;;;5116469;28;20429;-83
2021/08/15 05:42:40;;;;;;;16.77;12.35;;;19.00;75.20;;;;;;5120581;28;20042;-84
2021/08/15 05:48:28;;;;;;;15.68;11.00;;;19.10;75.10;;;;;;5116436;28;20034;-80
2021/08/15 05:54:17;;;;;;;16.55;11.50;;;19.30;74.80;;;;;;5116181;28;20023;-80
2021/08/15 06:00:11;;;;;;;17.88;12.15;;;19.50;75.40;;;;;;5116035;28;20463;-82
2021/08/15 06:05:59;;;;;;;16.83;11.57;;;19.70;75.10;;;;;;5115739;28;20026;-85
2021/08/15 06:15:42;;;;;;;14.85;11.60;;;19.90;75.20;;;;;;5115657;28;20026;-85
2021/08/15 06:21:31;;;;;;;16.70;11.80;;;20.00;75.10;;;;;;5115654;28;20050;-86
2021/08/15 06:27:19;;;;;;;16.33;11.90;;;20.20;75.30;;;;;;5115855;28;20031;-86
2021/08/15 06:33:08;;;;;;;15.13;10.80;;;20.30;74.90;;;;;;5115714;28;20030;-86
2021/08/15 06:38:56;;;;;;;16.10;10.77;;;20.50;75.30;;;;;;5115634;28;20137;-88
2021/08/15 06:44:45;;;;;;;14.73;11.05;;;20.70;75.30;;;;;;5115218;28;20038;-87
2021/08/15 06:50:34;;;;;;;17.77;11.45;;;20.80;75.40;;;;;;5114850;28;20027;-83
2021/08/15 06:56:23;;;;;;;17.63;11.50;;;21.10;75.80;;;;;;5115075;28;20074;-87
2021/08/15 07:02:12;;;;;;;14.68;10.38;;;21.30;75.60;;;;;;5119833;28;20383;-89
2021/08/15 07:08:00;;;;;;;17.42;11.52;;;21.60;75.70;;;;;;5121854;28;20033;-85
2021/08/15 07:17:43;;;;;;;12.93;9.32;;;21.90;75.10;;;;;;5115975;28;20070;-90
2021/08/15 07:23:32;;;;;;;14.68;10.10;;;22.10;75.20;;;;;;5122085;28;20030;-87
2021/08/15 07:29:20;;;;;;;14.60;9.80;;;22.40;75.20;;;;;;5114623;28;20077;-85
2021/08/15 07:35:11;;;;;;;12.70;9.02;;;22.70;75.60;;;;;;5114114;28;20092;-84
2021/08/15 07:40:59;;;;;;;15.43;8.35;;;23.10;74.40;;;;;;5114045;28;20105;-83
2021/08/15 07:46:47;;;;;;;11.45;7.70;;;23.30;73.40;;;;;;5114513;28;20042;-84
2021/08/15 07:52:39;;;;;;;12.25;8.30;;;23.60;73.40;;;;;;5114063;28;20038;-84
2021/08/15 07:58:36;;;;;;;12.50;7.90;;;24.10;73.00;;;;;;5114140;28;20092;-84
2021/08/15 08:04:25;;;;;;;13.55;8.07;;;24.50;72.60;;;;;;5113993;28;20027;-84
2021/08/15 08:10:13;;;;;;;12.57;6.90;;;24.70;71.30;;;;;;5114112;28;20093;-85
2021/08/15 08:19:57;;;;;;;13.98;10.07;;;25.10;70.30;;;;;;5113703;28;20049;-84
2021/08/15 08:25:47;;;;;;;11.10;6.43;;;25.40;69.90;;;;;;5119161;28;20395;-85
2021/08/15 08:31:35;;;;;;;11.90;6.78;;;25.80;69.60;;;;;;5122436;28;20023;-84
2021/08/15 08:37:25;;;;;;;10.10;6.00;;;26.20;69.20;;;;;;5120644;28;20026;-84
2021/08/15 08:43:14;;;;;;;9.98;5.50;;;26.50;67.80;;;;;;5121147;28;20074;-84
2021/08/15 08:49:03;;;;;;;8.15;4.40;;;26.70;66.90;;;;;;5120457;28;20107;-85
2021/08/15 08:54:53;;;;;;;6.65;3.08;;;26.90;65.70;;;;;;5121701;28;20030;-86
2021/08/15 09:00:43;;;;;;;8.20;4.03;;;27.20;64.70;;;;;;5120569;28;20508;-87
2021/08/15 09:06:32;;;;;;;7.97;4.28;;;27.50;63.80;;;;;;5119520;28;20540;-85
2021/08/15 09:12:20;;;;;;;9.57;4.80;;;27.70;62.80;;;;;;5127497;28;20069;-87
2021/08/15 09:22:24;;;;;;;8.35;4.07;;;28.10;61.60;;;;;;5124109;28;20104;-87
2021/08/15 09:28:13;;;;;;;10.13;4.82;;;28.40;60.80;;;;;;5121052;28;20039;-86
2021/08/15 09:34:04;;;;;;;9.38;4.55;;;28.80;59.70;;;;;;5117933;28;20106;-85
2021/08/15 09:39:53;;;;;;;8.77;4.22;;;29.10;59.00;;;;;;5120493;28;20051;-88
2021/08/15 09:45:44;;;;;;;7.85;4.40;;;29.50;58.20;;;;;;5119518;28;20034;-86
2021/08/15 09:51:42;;;;;;;8.10;4.03;;;29.90;57.40;;;;;;5121441;28;20042;-86
2021/08/15 09:57:32;;;;;;;28.33;20.73;;;30.30;56.40;;;;;;5120592;28;20462;-86
2021/08/15 10:03:21;;;;;;;10.85;6.97;;;30.70;54.70;;;;;;5119915;28;20379;-86
2021/08/15 10:09:09;;;;;;;21.25;19.00;;;30.90;53.20;;;;;;5119730;28;20042;-87
2021/08/15 10:14:59;;;;;;;9.15;4.50;;;31.50;53.20;;;;;;5119109;28;20160;-87
2021/08/15 10:24:54;;;;;;;8.95;4.97;;;32.20;51.50;;;;;;5120958;28;20053;-86
2021/08/15 10:30:44;;;;;;;12.10;5.38;;;32.70;50.60;;;;;;5121629;28;20490;-86
2021/08/15 10:36:32;;;;;;;8.80;4.28;;;33.10;50.00;;;;;;5115389;28;20077;-86
2021/08/15 10:42:43;;;;;;;7.90;4.38;;;33.70;49.40;;;;;;5115531;28;20177;-86
2021/08/15 10:48:50;;;;;;;7.07;3.88;;;34.60;48.80;;;;;;5115095;28;20494;-86
2021/08/15 10:54:41;;;;;;;9.00;4.88;;;35.30;46.20;;;;;;5115042;28;20080;-86
2021/08/15 11:00:30;;;;;;;9.80;4.40;;;36.00;46.50;;;;;;5114814;28;20395;-87
2021/08/15 11:06:36;;;;;;;8.00;3.97;;;37.00;44.90;;;;;;5114776;28;20424;-86
2021/08/15 11:12:27;;;;;;;8.90;3.88;;;38.00;43.50;;;;;;5114491;28;20066;-87
2021/08/15 11:18:18;;;;;;;7.75;4.35;;;38.80;41.00;;;;;;5114332;28;20037;-87
2021/08/15 11:28:07;;;;;;;10.15;5.93;;;40.70;39.30;;;;;;5114512;28;20111;-87
2021/08/15 11:34:09;;;;;;;7.90;3.85;;;41.60;37.80;;;;;;5114382;28;20435;-87
2021/08/15 11:40:09;;;;;;;6.95;3.50;;;42.40;35.50;;;;;;5114276;28;20105;-86
2021/08/15 11:46:01;;;;;;;7.82;3.80;;;42.90;34.40;;;;;;5114066;28;20395;-86
2021/08/15 11:51:50;;;;;;;7.75;3.83;;;43.60;33.30;;;;;;5117326;28;20027;-87
2021/08/15 11:57:56;;;;;;;7.00;3.72;;;44.50;32.20;;;;;;5122684;28;20019;-87
2021/08/15 12:04:05;;;;;;;9.95;4.43;;;45.90;32.10;;;;;;5118546;28;20026;-85
2021/08/15 12:10:34;;;;;;;7.07;3.65;;;47.40;30.80;;;;;;5117950;28;20083;-87
2021/08/15 12:16:26;;;;;;;6.45;3.65;;;47.80;28.70;;;;;;5118130;28;20046;-87
2021/08/15 12:22:18;;;;;;;7.85;3.80;;;47.80;28.50;;;;;;5117875;28;20140;-87
2021/08/15 12:28:10;;;;;;;8.15;3.80;;;47.80;28.20;;;;;;5117663;28;20081;-87
2021/08/15 12:34:11;;;;;;;7.90;3.70;;;49.60;28.60;;;;;;5117541;28;20027;-88
2021/08/15 12:40:06;;;;;;;6.20;3.63;;;50.60;26.80;;;;;;5117532;28;20039;-85
2021/08/15 12:45:55;;;;;;;5.90;3.25;;;51.50;27.00;;;;;;5120384;28;20371;-86
2021/08/15 12:51:47;;;;;;;6.53;3.20;;;50.60;25.50;;;;;;5118161;28;20034;-87
2021/08/15 12:57:36;;;;;;;7.65;3.60;;;49.80;25.60;;;;;;5120838;28;20459;-87
2021/08/15 13:03:25;;;;;;;7.07;3.70;;;48.40;25.20;;;;;;5117895;28;20039;-87
2021/08/15 13:09:13;;;;;;;6.80;3.50;;;47.00;26.00;;;;;;5116508;28;20383;-86
2021/08/15 13:15:08;;;;;;;6.68;3.50;;;45.80;27.10;;;;;;5117015;28;20031;-87
2021/08/15 13:21:00;;;;;;;5.50;3.33;;;49.20;27.60;;;;;;5116826;28;20546;-85
2021/08/15 13:30:27;;;;;;;4.68;3.03;;;53.30;25.20;;;;;;5116465;28;20297;-87
2021/08/15 13:36:16;;;;;;;6.15;3.58;;;50.60;24.30;;;;;;5116679;28;20370;-87
2021/08/15 13:42:05;;;;;;;7.20;4.05;;;48.20;26.00;;;;;;5116502;28;20061;-86
2021/08/15 13:47:57;;;;;;;6.20;3.42;;;49.30;27.50;;;;;;5116271;28;20046;-86
2021/08/15 13:53:49;;;;;;;5.97;3.55;;;50.60;26.80;;;;;;5116183;28;20031;-87
2021/08/15 13:59:42;;;;;;;7.18;3.80;;;53.30;25.60;;;;;;5116054;28;20038;-87
2021/08/15 14:05:30;;;;;;;5.85;3.17;;;55.90;24.70;;;;;;5115921;28;20070;-87
2021/08/15 14:11:19;;;;;;;6.35;3.20;;;53.10;22.80;;;;;;5115874;28;20023;-87
2021/08/15 14:17:08;;;;;;;6.67;3.60;;;49.40;23.70;;;;;;5115979;28;20513;-86
2021/08/15 14:22:57;;;;;;;7.75;3.50;;;51.00;25.20;;;;;;5115638;28;20490;-86
2021/08/15 14:32:41;;;;;;;6.75;3.50;;;47.40;23.70;;;;;;5115594;28;20065;-86
2021/08/15 14:38:30;;;;;;;6.47;3.33;;;45.90;25.40;;;;;;5115501;28;20031;-86
2021/08/15 14:44:18;;;;;;;6.18;3.08;;;44.60;25.50;;;;;;5115244;28;20384;-86
2021/08/15 14:50:10;;;;;;;7.35;3.33;;;42.80;26.10;;;;;;5115473;28;20061;-86
2021/08/15 14:55:59;;;;;;;6.72;3.60;;;41.10;27.20;;;;;;5114715;28;20386;-86
2021/08/15 15:01:48;;;;;;;9.32;3.80;;;40.20;27.80;;;;;;5114626;28;20434;-85
2021/08/15 15:07:36;;;;;;;7.95;3.58;;;39.30;28.30;;;;;;5114676;28;20054;-86
2021/08/15 15:13:25;;;;;;;5.60;3.13;;;38.30;29.00;;;;;;5114614;28;20399;-86
2021/08/15 15:19:13;;;;;;;8.18;3.75;;;37.40;29.80;;;;;;5114867;28;20397;-86
2021/08/15 15:25:01;;;;;;;9.98;5.22;;;36.60;31.00;;;;;;5114924;28;20088;-85
2021/08/15 15:34:44;;;;;;;9.73;4.10;;;35.70;31.90;;;;;;5114437;28;20031;-85
2021/08/15 15:40:33;;;;;;;8.30;4.10;;;35.10;32.80;;;;;;5114422;28;20131;-85
2021/08/15 15:46:26;;;;;;;10.02;4.25;;;34.50;35.70;;;;;;5114389;28;20084;-85
2021/08/15 15:52:14;;;;;;;10.98;4.65;;;33.30;37.00;;;;;;5113890;28;20084;-85
2021/08/15 15:58:04;;;;;;;9.93;4.13;;;31.90;39.80;;;;;;5114457;28;20031;-85
2021/08/15 16:03:53;;;;;;;9.40;3.42;;;30.60;42.10;;;;;;5114353;28;20080;-85
2021/08/15 16:09:45;;;;;;;11.00;5.10;;;29.20;42.40;;;;;;5114137;28;20026;-85
2021/08/15 16:15:35;;;;;;;9.68;5.13;;;27.20;47.70;;;;;;5114027;28;20078;-85
2021/08/15 16:21:24;;;;;;;10.88;6.45;;;26.10;52.70;;;;;;5113714;28;20043;-83
2021/08/15 16:27:14;;;;;;;10.50;6.00;;;25.50;56.70;;;;;;5113946;28;20104;-84
2021/08/15 16:37:06;;;;;;;13.07;6.32;;;24.90;68.10;;;;;;5113840;28;20050;-84
2021/08/15 16:42:55;;;;;;;13.18;6.70;;;24.80;76.90;;;;;;5116914;28;20483;-83
2021/08/15 16:48:43;;;;;;;10.85;6.10;;;24.70;80.40;;;;;;5118328;28;20379;-86
2021/08/15 16:54:32;;;;;;;10.73;6.10;;;24.80;82.60;;;;;;5117442;28;20104;-85
2021/08/15 17:00:21;;;;;;;11.65;5.90;;;25.80;87.90;;;;;;5117172;28;20553;-84
2021/08/15 17:06:10;;;;;;;10.73;4.85;;;29.50;86.80;;;;;;5116852;28;20027;-83
2021/08/15 17:11:59;;;;;;;8.60;4.20;;;32.00;78.40;;;;;;5116983;28;20042;-91
2021/08/15 17:17:48;;;;;;;10.27;4.85;;;30.60;71.70;;;;;;5117005;28;20127;-85
2021/08/15 17:23:36;;;;;;;9.80;4.65;;;28.40;75.40;;;;;;5116963;28;20112;-84
2021/08/15 17:29:25;;;;;;;12.30;4.80;;;27.00;78.70;;;;;;5116405;28;20433;-86
2021/08/15 17:39:07;;;;;;;10.82;5.57;;;26.30;83.50;;;;;;5116825;28;20070;-85
2021/08/15 17:44:56;;;;;;;10.48;6.13;;;26.00;85.00;;;;;;5116719;28;20164;-84
2021/08/15 17:50:45;;;;;;;11.88;5.68;;;25.90;86.00;;;;;;5116860;28;20045;-84
2021/08/15 17:56:33;;;;;;;10.52;5.60;;;25.50;86.00;;;;;;5116790;28;20047;-85
2021/08/15 18:02:22;;;;;;;11.52;6.15;;;25.20;87.00;;;;;;5116471;28;20130;-85
2021/08/15 18:08:11;;;;;;;11.25;5.93;;;24.90;87.80;;;;;;5116711;28;20085;-84
2021/08/15 18:14:00;;;;;;;11.45;6.55;;;24.70;88.40;;;;;;5115905;28;20030;-85
2021/08/15 18:19:49;;;;;;;11.27;6.82;;;24.40;89.10;;;;;;5118007;28;20050;-88
2021/08/15 18:25:38;;;;;;;10.45;6.72;;;24.40;89.70;;;;;;5118627;28;20085;-89
2021/08/15 18:31:27;;;;;;;12.68;6.68;;;24.20;89.80;;;;;;5117079;28;20034;-88
2021/08/15 18:41:09;;;;;;;15.68;8.10;;;23.90;90.10;;;;;;5116199;28;20071;-88
2021/08/15 19:30:29;;;;;;;11.43;5.95;;;23.40;91.20;;;;;;5886242;22;20054;-86
2021/08/15 19:36:46;;;;;;;13.05;6.45;;;23.30;91.10;;;;;;4994581;28;20062;-85
2021/08/15 19:42:36;;;;;;;12.52;7.22;;;23.20;91.10;;;;;;4994745;28;20045;-87
2021/08/15 19:48:27;;;;;;;10.65;6.65;;;23.10;91.40;;;;;;4994318;28;20030;-87
2021/08/15 19:54:19;;;;;;;11.73;6.60;;;23.00;91.10;;;;;;4994516;28;20382;-86
2021/08/15 20:00:12;;;;;;;12.13;6.78;;;23.00;91.20;;;;;;4997136;28;20050;-88
2021/08/15 20:19:07;;;;;;;;;;;;;;;;;;;;;
2021/08/15 20:31:12;;;;;;;8.50;4.60;;;22.70;91.50;;;;;;4998238;28;20041;-88
2021/08/15 20:41:04;;;;;;;;;;;;;;;;;;;;;
2021/08/15 21:15:35;;;;;;;;;;;;;;;;;;;;;
2021/08/15 21:28:28;;;;;;;12.20;5.95;;;21.80;91.00;;;;;;4565864;30;20100;-87
2021/08/15 21:34:16;;;;;;;9.77;5.25;;;21.70;91.00;;;;;;4835485;29;20079;-87
2021/08/15 21:40:13;;;;;;;12.45;5.72;;;21.60;91.00;;;;;;4964899;28;20093;-87
2021/08/15 21:46:03;;;;;;;10.50;5.60;;;21.40;91.20;;;;;;4997542;28;20104;-87
2021/08/15 21:51:56;;;;;;;11.35;5.35;;;21.40;91.30;;;;;;4996632;28;20084;-87
2021/08/15 21:57:47;;;;;;;10.60;5.50;;;21.40;91.40;;;;;;4996422;28;20034;-87
2021/08/15 22:03:39;;;;;;;12.20;6.43;;;21.30;91.20;;;;;;4996326;28;20542;-87
2021/08/15 22:09:46;;;;;;;10.98;6.00;;;21.20;91.10;;;;;;4995975;28;20161;-87
2021/08/15 22:15:38;;;;;;;12.05;5.97;;;21.00;91.10;;;;;;4996033;28;20054;-86
2021/08/15 22:21:31;;;;;;;10.63;6.03;;;20.90;91.30;;;;;;4995755;28;20063;-86
2021/08/15 22:27:26;;;;;;;12.57;5.68;;;20.90;91.50;;;;;;4995813;28;20076;-87
2021/08/15 22:33:20;;;;;;;10.90;6.30;;;20.90;91.60;;;;;;4995756;28;20096;-87
2021/08/15 22:39:12;;;;;;;10.43;5.28;;;20.90;91.60;;;;;;4995856;28;20378;-87
2021/08/15 22:45:17;;;;;;;12.05;6.22;;;20.90;91.40;;;;;;4995733;28;20096;-87
2021/08/15 22:51:09;;;;;;;15.68;5.90;;;20.80;91.30;;;;;;4995677;28;20033;-87
2021/08/15 22:56:58;;;;;;;13.10;6.00;;;20.70;91.40;;;;;;4998627;28;20096;-87
2021/08/15 23:03:02;;;;;;;;;;;;;;;;;;;;;
2021/08/15 23:09:20;;;;;;;11.18;5.97;;;20.80;91.90;;;;;;5000169;28;20026;-88
2021/08/15 23:15:20;;;;;;;13.85;6.07;;;20.80;91.70;;;;;;5000806;28;20037;-89
2021/08/15 23:21:12;;;;;;;13.93;5.90;;;20.80;91.70;;;;;;4999160;28;20046;-90
2021/08/15 23:27:00;;;;;;;15.90;5.97;;;20.70;91.60;;;;;;4999475;28;20022;-90
2021/08/15 23:33:56;;;;;;;11.85;5.53;;;20.70;91.60;;;;;;5002230;28;20065;-89
2021/08/15 23:39:27;;;;;;;10.70;5.60;;;20.60;91.60;;;;;;4995228;28;20383;-89
2021/08/15 23:45:18;;;;;;;11.15;5.97;;;20.60;91.50;;;;;;5011106;28;20041;-89
2021/08/15 23:51:54;;;;;;;;;;;;;;;;;;;;;
2021/08/15 23:58:23;;;;;;;11.38;6.15;;;20.60;91.60;;;;;;4994478;28;20553;-89
